sensor_id;sensor_type;location;lat;lon;timestamp;pressure;altitude;pressure_sealevel;temperature;humidity
5877;BME280;2964;42.144;24.730;2023-01-25T00:01:02;142230.03;;;2.44;97.55
5877;BME280;2964;42.144;24.730;2023-01-25T00:03:29;142263.69;;;2.58;97.11
5877;BME280;2964;42.144;24.730;2023-01-25T00:05:59;142181.38;;;2.24;98.59
5877;BME280;2964;42.144;24.730;2023-01-25T00:08:26;142191.34;;;2.28;99.12
5877;BME280;2964;42.144;24.730;2023-01-25T00:10:52;142206.31;;;2.34;99.35
5877;BME280;2964;42.144;24.730;2023-01-25T00:13:19;142213.81;;;2.37;99.82
5877;BME280;2964;42.144;24.730;2023-01-25T00:15:47;142196.34;;;2.30;100.00
5877;BME280;2964;42.144;24.730;2023-01-25T00:18:14;142180.16;;;2.23;100.00
5877;BME280;2964;42.144;24.730;2023-01-25T00:20:40;142206.31;;;2.34;100.00
5877;BME280;2964;42.144;24.730;2023-01-25T00:23:07;142198.84;;;2.31;100.00
5877;BME280;2964;42.144;24.730;2023-01-25T00:25:34;142213.81;;;2.37;100.00
5877;BME280;2964;42.144;24.730;2023-01-25T00:28:00;142196.34;;;2.30;100.00
5877;BME280;2964;42.144;24.730;2023-01-25T00:30:27;142188.88;;;2.27;100.00
5877;BME280;2964;42.144;24.730;2023-01-25T00:32:57;142211.34;;;2.36;100.00
5877;BME280;2964;42.144;24.730;2023-01-25T00:35:29;142241.25;;;2.48;100.00
5877;BME280;2964;42.144;24.730;2023-01-25T00:38:00;142208.81;;;2.35;100.00
5877;BME280;2964;42.144;24.730;2023-01-25T00:40:27;142200.09;;;2.31;100.00
5877;BME280;2964;42.144;24.730;2023-01-25T00:42:54;142237.50;;;2.47;100.00
5877;BME280;2964;42.144;24.730;2023-01-25T00:45:20;142261.22;;;2.57;99.16
5877;BME280;2964;42.144;24.730;2023-01-25T00:47:47;142267.44;;;2.59;98.71
5877;BME280;2964;42.144;24.730;2023-01-25T00:50:15;142253.72;;;2.54;98.10
5877;BME280;2964;42.144;24.730;2023-01-25T00:52:42;142197.56;;;2.30;98.23
5877;BME280;2964;42.144;24.730;2023-01-25T00:55:09;142253.72;;;2.54;97.89
5877;BME280;2964;42.144;24.730;2023-01-25T00:57:35;142257.47;;;2.55;97.75
5877;BME280;2964;42.144;24.730;2023-01-25T01:00:03;142218.78;;;2.39;98.16
5877;BME280;2964;42.144;24.730;2023-01-25T01:02:30;142228.75;;;2.43;98.42
5877;BME280;2964;42.144;24.730;2023-01-25T01:04:57;142218.78;;;2.39;98.49
5877;BME280;2964;42.144;24.730;2023-01-25T01:07:25;142241.25;;;2.48;98.08
5877;BME280;2964;42.144;24.730;2023-01-25T01:09:53;142252.50;;;2.53;98.02
5877;BME280;2964;42.144;24.730;2023-01-25T01:12:19;142241.25;;;2.48;97.80
5877;BME280;2964;42.144;24.730;2023-01-25T01:14:46;142248.75;;;2.51;97.88
5877;BME280;2964;42.144;24.730;2023-01-25T01:17:13;142211.34;;;2.36;97.91
5877;BME280;2964;42.144;24.730;2023-01-25T01:19:39;142238.78;;;2.47;97.75
5877;BME280;2964;42.144;24.730;2023-01-25T01:22:06;142232.50;;;2.45;98.15
5877;BME280;2964;42.144;24.730;2023-01-25T01:24:34;142198.84;;;2.31;98.58
5877;BME280;2964;42.144;24.730;2023-01-25T01:27:01;142193.88;;;2.29;98.17
5877;BME280;2964;42.144;24.730;2023-01-25T01:29:28;142168.91;;;2.19;98.64
5877;BME280;2964;42.144;24.730;2023-01-25T01:31:54;142173.88;;;2.21;98.70
5877;BME280;2964;42.144;24.730;2023-01-25T01:34:21;142206.31;;;2.34;98.78
5877;BME280;2964;42.144;24.730;2023-01-25T01:36:48;142196.34;;;2.30;98.90
5877;BME280;2964;42.144;24.730;2023-01-25T01:39:14;142217.56;;;2.39;98.42
5877;BME280;2964;42.144;24.730;2023-01-25T01:41:42;142213.81;;;2.37;97.94
5877;BME280;2964;42.144;24.730;2023-01-25T01:44:15;142235.03;;;2.46;97.61
5877;BME280;2964;42.144;24.730;2023-01-25T01:46:45;142231.28;;;2.44;97.24
5877;BME280;2964;42.144;24.730;2023-01-25T01:49:17;142235.03;;;2.46;97.92
5877;BME280;2964;42.144;24.730;2023-01-25T01:51:47;142247.50;;;2.51;97.36
5877;BME280;2964;42.144;24.730;2023-01-25T01:54:18;142252.50;;;2.53;97.15
5877;BME280;2964;42.144;24.730;2023-01-25T01:56:54;142241.25;;;2.48;96.81
5877;BME280;2964;42.144;24.730;2023-01-25T01:59:26;142264.94;;;2.58;96.68
5877;BME280;2964;42.144;24.730;2023-01-25T02:01:54;142233.78;;;2.45;95.95
5877;BME280;2964;42.144;24.730;2023-01-25T02:04:21;142187.59;;;2.26;96.17
5877;BME280;2964;42.144;24.730;2023-01-25T02:06:54;142241.25;;;2.48;96.80
5877;BME280;2964;42.144;24.730;2023-01-25T02:09:24;142259.94;;;2.56;96.27
5877;BME280;2964;42.144;24.730;2023-01-25T02:11:55;142241.25;;;2.48;96.14
5877;BME280;2964;42.144;24.730;2023-01-25T02:14:22;142241.25;;;2.48;96.62
5877;BME280;2964;42.144;24.730;2023-01-25T02:16:49;142252.50;;;2.53;96.24
5877;BME280;2964;42.144;24.730;2023-01-25T02:19:25;142217.56;;;2.39;95.67
5877;BME280;2964;42.144;24.730;2023-01-25T02:21:56;142246.22;;;2.50;95.96
5877;BME280;2964;42.144;24.730;2023-01-25T02:24:27;142197.56;;;2.30;96.25
5877;BME280;2964;42.144;24.730;2023-01-25T02:26:57;142217.56;;;2.39;96.15
5877;BME280;2964;42.144;24.730;2023-01-25T02:29:25;142230.03;;;2.44;96.47
5877;BME280;2964;42.144;24.730;2023-01-25T02:31:58;142231.28;;;2.44;96.22
5877;BME280;2964;42.144;24.730;2023-01-25T02:34:25;142252.50;;;2.53;96.31
5877;BME280;2964;42.144;24.730;2023-01-25T02:36:51;142256.25;;;2.55;95.73
5877;BME280;2964;42.144;24.730;2023-01-25T02:39:18;142278.69;;;2.64;95.33
5877;BME280;2964;42.144;24.730;2023-01-25T02:41:46;142282.41;;;2.65;95.08
5877;BME280;2964;42.144;24.730;2023-01-25T02:44:16;142273.66;;;2.62;94.74
5877;BME280;2964;42.144;24.730;2023-01-25T02:46:43;142309.91;;;2.77;94.38
5877;BME280;2964;42.144;24.730;2023-01-25T02:49:11;142264.94;;;2.58;94.29
5877;BME280;2964;42.144;24.730;2023-01-25T02:51:39;142253.72;;;2.54;94.63
5877;BME280;2964;42.144;24.730;2023-01-25T02:54:07;142296.13;;;2.71;94.10
5877;BME280;2964;42.144;24.730;2023-01-25T02:56:35;142212.56;;;2.37;94.31
5877;BME280;2964;42.144;24.730;2023-01-25T02:59:02;142243.75;;;2.49;94.25
5877;BME280;2964;42.144;24.730;2023-01-25T03:01:31;142266.22;;;2.59;93.98
5877;BME280;2964;42.144;24.730;2023-01-25T03:03:58;142202.59;;;2.33;94.33
5877;BME280;2964;42.144;24.730;2023-01-25T03:06:25;142211.34;;;2.36;93.49
5877;BME280;2964;42.144;24.730;2023-01-25T03:08:58;142266.22;;;2.59;93.51
5877;BME280;2964;42.144;24.730;2023-01-25T03:11:28;142262.47;;;2.57;93.03
5877;BME280;2964;42.144;24.730;2023-01-25T03:14:13;142261.22;;;2.57;93.05
5877;BME280;2964;42.144;24.730;2023-01-25T03:16:41;142258.72;;;2.56;92.74
5877;BME280;2964;42.144;24.730;2023-01-25T03:19:08;142249.97;;;2.52;92.67
5877;BME280;2964;42.144;24.730;2023-01-25T03:21:36;142252.50;;;2.53;93.11
5877;BME280;2964;42.144;24.730;2023-01-25T03:24:09;142228.75;;;2.43;92.71
5877;BME280;2964;42.144;24.730;2023-01-25T03:26:36;142218.78;;;2.39;93.07
5877;BME280;2964;42.144;24.730;2023-01-25T03:29:23;142243.75;;;2.49;93.62
5877;BME280;2964;42.144;24.730;2023-01-25T03:31:51;142261.22;;;2.57;92.65
5877;BME280;2964;42.144;24.730;2023-01-25T03:34:17;142256.25;;;2.55;92.99
5877;BME280;2964;42.144;24.730;2023-01-25T03:36:44;142304.88;;;2.75;92.25
5877;BME280;2964;42.144;24.730;2023-01-25T03:39:11;142287.44;;;2.67;91.89
5877;BME280;2964;42.144;24.730;2023-01-25T03:41:37;142291.16;;;2.69;92.03
5877;BME280;2964;42.144;24.730;2023-01-25T03:44:04;142293.66;;;2.70;91.51
5877;BME280;2964;42.144;24.730;2023-01-25T03:46:31;142266.22;;;2.59;91.82
5877;BME280;2964;42.144;24.730;2023-01-25T03:48:59;142263.69;;;2.58;91.31
5877;BME280;2964;42.144;24.730;2023-01-25T03:51:25;142273.66;;;2.62;91.20
5877;BME280;2964;42.144;24.730;2023-01-25T03:53:52;142182.63;;;2.24;91.85
5877;BME280;2964;42.144;24.730;2023-01-25T03:56:19;142261.22;;;2.57;91.99
5877;BME280;2964;42.144;24.730;2023-01-25T03:58:46;142274.97;;;2.62;91.21
5877;BME280;2964;42.144;24.730;2023-01-25T04:01:13;142248.75;;;2.51;91.22
5877;BME280;2964;42.144;24.730;2023-01-25T04:03:39;142251.22;;;2.53;91.02
5877;BME280;2964;42.144;24.730;2023-01-25T04:06:07;142258.72;;;2.56;91.02
5877;BME280;2964;42.144;24.730;2023-01-25T04:08:35;142251.22;;;2.53;90.47
5877;BME280;2964;42.144;24.730;2023-01-25T04:11:03;142226.28;;;2.42;90.98
5877;BME280;2964;42.144;24.730;2023-01-25T04:13:31;142254.97;;;2.54;91.16
5877;BME280;2964;42.144;24.730;2023-01-25T04:15:59;142231.28;;;2.44;91.42
5877;BME280;2964;42.144;24.730;2023-01-25T04:18:26;142289.91;;;2.68;90.66
5877;BME280;2964;42.144;24.730;2023-01-25T04:20:54;142217.56;;;2.39;90.47
5877;BME280;2964;42.144;24.730;2023-01-25T04:23:25;142257.47;;;2.55;90.99
5877;BME280;2964;42.144;24.730;2023-01-25T04:25:52;142211.34;;;2.36;91.40
5877;BME280;2964;42.144;24.730;2023-01-25T04:28:19;142248.75;;;2.51;91.35
5877;BME280;2964;42.144;24.730;2023-01-25T04:30:46;142269.97;;;2.60;90.93
5877;BME280;2964;42.144;24.730;2023-01-25T04:33:13;142297.41;;;2.72;90.79
5877;BME280;2964;42.144;24.730;2023-01-25T04:35:40;142274.97;;;2.62;90.52
5877;BME280;2964;42.144;24.730;2023-01-25T04:38:08;142273.66;;;2.62;91.05
5877;BME280;2964;42.144;24.730;2023-01-25T04:40:37;142243.75;;;2.49;91.94
5877;BME280;2964;42.144;24.730;2023-01-25T04:43:04;142180.16;;;2.23;93.13
5877;BME280;2964;42.144;24.730;2023-01-25T04:45:32;142197.56;;;2.30;93.15
5877;BME280;2964;42.144;24.730;2023-01-25T04:48:02;142196.34;;;2.30;93.38
5877;BME280;2964;42.144;24.730;2023-01-25T04:50:29;142198.84;;;2.31;93.10
5877;BME280;2964;42.144;24.730;2023-01-25T04:52:56;142148.97;;;2.10;93.43
5877;BME280;2964;42.144;24.730;2023-01-25T04:55:23;142188.88;;;2.27;93.64
5877;BME280;2964;42.144;24.730;2023-01-25T04:57:51;142133.97;;;2.04;93.86
5877;BME280;2964;42.144;24.730;2023-01-25T05:00:20;142153.94;;;2.12;93.86
5877;BME280;2964;42.144;24.730;2023-01-25T05:02:49;142156.44;;;2.13;93.82
5877;BME280;2964;42.144;24.730;2023-01-25T05:05:15;142162.69;;;2.16;93.24
5877;BME280;2964;42.144;24.730;2023-01-25T05:07:42;142181.38;;;2.24;93.35
5877;BME280;2964;42.144;24.730;2023-01-25T05:10:10;142142.72;;;2.08;93.04
5877;BME280;2964;42.144;24.730;2023-01-25T05:12:37;142138.97;;;2.06;92.81
5877;BME280;2964;42.144;24.730;2023-01-25T05:15:06;142210.06;;;2.36;92.09
5877;BME280;2964;42.144;24.730;2023-01-25T05:17:33;142200.09;;;2.31;91.87
5877;BME280;2964;42.144;24.730;2023-01-25T05:20:00;142201.31;;;2.32;91.63
5877;BME280;2964;42.144;24.730;2023-01-25T05:22:26;142211.34;;;2.36;91.48
5877;BME280;2964;42.144;24.730;2023-01-25T05:24:53;142201.31;;;2.32;91.70
5877;BME280;2964;42.144;24.730;2023-01-25T05:27:20;142190.13;;;2.27;91.58
5877;BME280;2964;42.144;24.730;2023-01-25T05:29:46;142131.50;;;2.03;91.74
5877;BME280;2964;42.144;24.730;2023-01-25T05:32:16;142163.91;;;2.17;92.02
5877;BME280;2964;42.144;24.730;2023-01-25T05:34:44;142191.34;;;2.28;91.66
5877;BME280;2964;42.144;24.730;2023-01-25T05:37:12;142198.84;;;2.31;91.67
5877;BME280;2964;42.144;24.730;2023-01-25T05:39:39;142200.09;;;2.31;91.30
5877;BME280;2964;42.144;24.730;2023-01-25T05:42:09;142218.78;;;2.39;90.97
5877;BME280;2964;42.144;24.730;2023-01-25T05:44:36;142225.06;;;2.42;90.74
5877;BME280;2964;42.144;24.730;2023-01-25T05:47:02;142227.53;;;2.43;90.53
5877;BME280;2964;42.144;24.730;2023-01-25T05:49:30;142208.81;;;2.35;90.41
5877;BME280;2964;42.144;24.730;2023-01-25T05:51:58;142206.31;;;2.34;90.00
5877;BME280;2964;42.144;24.730;2023-01-25T05:54:25;142201.31;;;2.32;89.93
5877;BME280;2964;42.144;24.730;2023-01-25T05:56:52;142183.84;;;2.25;89.95
5877;BME280;2964;42.144;24.730;2023-01-25T05:59:19;142208.81;;;2.35;89.28
5877;BME280;2964;42.144;24.730;2023-01-25T06:01:45;142216.31;;;2.38;89.38
5877;BME280;2964;42.144;24.730;2023-01-25T06:04:13;142208.81;;;2.35;89.33
5877;BME280;2964;42.144;24.730;2023-01-25T06:06:42;142215.03;;;2.38;88.76
5877;BME280;2964;42.144;24.730;2023-01-25T06:09:09;142186.38;;;2.26;88.59
5877;BME280;2964;42.144;24.730;2023-01-25T06:11:37;142228.75;;;2.43;88.93
5877;BME280;2964;42.144;24.730;2023-01-25T06:14:04;142231.28;;;2.44;88.41
5877;BME280;2964;42.144;24.730;2023-01-25T06:16:30;142238.78;;;2.47;88.45
5877;BME280;2964;42.144;24.730;2023-01-25T06:18:57;142186.38;;;2.26;88.27
5877;BME280;2964;42.144;24.730;2023-01-25T06:21:24;142201.31;;;2.32;87.79
5877;BME280;2964;42.144;24.730;2023-01-25T06:23:52;142226.28;;;2.42;88.15
5877;BME280;2964;42.144;24.730;2023-01-25T06:26:19;142213.81;;;2.37;88.32
5877;BME280;2964;42.144;24.730;2023-01-25T06:28:46;142226.28;;;2.42;88.45
5877;BME280;2964;42.144;24.730;2023-01-25T06:31:14;142238.78;;;2.47;88.07
5877;BME280;2964;42.144;24.730;2023-01-25T06:33:42;142246.22;;;2.50;87.46
5877;BME280;2964;42.144;24.730;2023-01-25T06:36:14;142208.81;;;2.35;88.22
5877;BME280;2964;42.144;24.730;2023-01-25T06:38:41;142215.03;;;2.38;87.50
5877;BME280;2964;42.144;24.730;2023-01-25T06:41:10;142278.69;;;2.64;87.21
5877;BME280;2964;42.144;24.730;2023-01-25T06:43:38;142213.81;;;2.37;87.66
5877;BME280;2964;42.144;24.730;2023-01-25T06:46:06;142249.97;;;2.52;87.09
5877;BME280;2964;42.144;24.730;2023-01-25T06:48:34;142251.22;;;2.53;87.38
5877;BME280;2964;42.144;24.730;2023-01-25T06:51:02;142278.69;;;2.64;87.20
5877;BME280;2964;42.144;24.730;2023-01-25T06:53:31;142202.59;;;2.33;87.79
5877;BME280;2964;42.144;24.730;2023-01-25T06:55:58;142256.25;;;2.55;87.68
5877;BME280;2964;42.144;24.730;2023-01-25T06:58:28;142238.78;;;2.47;87.17
5877;BME280;2964;42.144;24.730;2023-01-25T07:00:58;142283.69;;;2.66;86.83
5877;BME280;2964;42.144;24.730;2023-01-25T07:03:25;142266.22;;;2.59;86.74
5877;BME280;2964;42.144;24.730;2023-01-25T07:05:56;142273.66;;;2.62;87.31
5877;BME280;2964;42.144;24.730;2023-01-25T07:08:23;142243.75;;;2.49;87.13
5877;BME280;2964;42.144;24.730;2023-01-25T07:10:53;142269.97;;;2.60;87.03
5877;BME280;2964;42.144;24.730;2023-01-25T07:13:20;142266.22;;;2.59;87.19
5877;BME280;2964;42.144;24.730;2023-01-25T07:15:53;142286.16;;;2.67;86.76
5877;BME280;2964;42.144;24.730;2023-01-25T07:18:20;142264.94;;;2.58;86.95
5877;BME280;2964;42.144;24.730;2023-01-25T07:20:46;142247.50;;;2.51;87.13
5877;BME280;2964;42.144;24.730;2023-01-25T07:23:13;142208.81;;;2.35;87.78
5877;BME280;2964;42.144;24.730;2023-01-25T07:25:43;142191.34;;;2.28;88.03
5877;BME280;2964;42.144;24.730;2023-01-25T07:28:09;142251.22;;;2.53;87.57
5877;BME280;2964;42.144;24.730;2023-01-25T07:30:36;142190.13;;;2.27;87.04
5877;BME280;2964;42.144;24.730;2023-01-25T07:33:04;142231.28;;;2.44;87.50
5877;BME280;2964;42.144;24.730;2023-01-25T07:35:31;142242.47;;;2.49;87.12
5877;BME280;2964;42.144;24.730;2023-01-25T07:37:58;142242.47;;;2.49;87.13
5877;BME280;2964;42.144;24.730;2023-01-25T07:40:24;142213.81;;;2.37;87.24
5877;BME280;2964;42.144;24.730;2023-01-25T07:42:51;142263.69;;;2.58;87.42
5877;BME280;2964;42.144;24.730;2023-01-25T07:45:18;142296.13;;;2.71;87.11
5877;BME280;2964;42.144;24.730;2023-01-25T07:47:44;142316.13;;;2.79;86.62
5877;BME280;2964;42.144;24.730;2023-01-25T07:50:13;142318.59;;;2.80;86.00
5877;BME280;2964;42.144;24.730;2023-01-25T07:52:39;142293.66;;;2.70;85.21
5877;BME280;2964;42.144;24.730;2023-01-25T07:55:07;142243.75;;;2.49;86.13
5877;BME280;2964;42.144;24.730;2023-01-25T07:57:37;142256.25;;;2.55;86.46
5877;BME280;2964;42.144;24.730;2023-01-25T08:00:04;142272.44;;;2.61;86.37
5877;BME280;2964;42.144;24.730;2023-01-25T08:02:34;142246.22;;;2.50;86.33
5877;BME280;2964;42.144;24.730;2023-01-25T08:05:00;142253.72;;;2.54;85.98
5877;BME280;2964;42.144;24.730;2023-01-25T08:07:29;142249.97;;;2.52;85.77
5877;BME280;2964;42.144;24.730;2023-01-25T08:09:55;142228.75;;;2.43;85.74
5877;BME280;2964;42.144;24.730;2023-01-25T08:12:22;142262.47;;;2.57;85.68
5877;BME280;2964;42.144;24.730;2023-01-25T08:14:50;142293.66;;;2.70;85.17
5877;BME280;2964;42.144;24.730;2023-01-25T08:17:16;142327.31;;;2.84;84.72
5877;BME280;2964;42.144;24.730;2023-01-25T08:19:43;142336.06;;;2.87;84.70
5877;BME280;2964;42.144;24.730;2023-01-25T08:22:10;142311.13;;;2.77;84.81
5877;BME280;2964;42.144;24.730;2023-01-25T08:24:39;142298.66;;;2.72;84.43
5877;BME280;2964;42.144;24.730;2023-01-25T08:27:05;142286.16;;;2.67;84.84
5877;BME280;2964;42.144;24.730;2023-01-25T08:29:32;142286.16;;;2.67;84.94
5877;BME280;2964;42.144;24.730;2023-01-25T08:31:59;142301.16;;;2.73;84.49
5877;BME280;2964;42.144;24.730;2023-01-25T08:34:28;142311.13;;;2.77;84.72
5877;BME280;2964;42.144;24.730;2023-01-25T08:36:56;142288.69;;;2.68;84.81
5877;BME280;2964;42.144;24.730;2023-01-25T08:39:23;142271.22;;;2.61;85.07
5877;BME280;2964;42.144;24.730;2023-01-25T08:41:51;142307.38;;;2.76;84.93
5877;BME280;2964;42.144;24.730;2023-01-25T08:44:18;142303.63;;;2.74;84.66
5877;BME280;2964;42.144;24.730;2023-01-25T08:46:47;142296.13;;;2.71;84.65
5877;BME280;2964;42.144;24.730;2023-01-25T08:49:13;142313.59;;;2.78;85.16
5877;BME280;2964;42.144;24.730;2023-01-25T08:51:40;142333.59;;;2.86;84.68
5877;BME280;2964;42.144;24.730;2023-01-25T08:54:10;142339.81;;;2.89;84.30
5877;BME280;2964;42.144;24.730;2023-01-25T08:56:37;142343.56;;;2.90;84.66
5877;BME280;2964;42.144;24.730;2023-01-25T08:59:06;142372.25;;;3.02;84.25
5877;BME280;2964;42.144;24.730;2023-01-25T09:01:34;142373.53;;;3.03;84.06
5877;BME280;2964;42.144;24.730;2023-01-25T09:04:00;142317.34;;;2.80;84.36
5877;BME280;2964;42.144;24.730;2023-01-25T09:06:27;142328.63;;;2.84;84.80
5877;BME280;2964;42.144;24.730;2023-01-25T09:08:54;142368.56;;;3.01;84.56
5877;BME280;2964;42.144;24.730;2023-01-25T09:11:21;142382.28;;;3.06;84.46
5877;BME280;2964;42.144;24.730;2023-01-25T09:13:48;142371.03;;;3.02;84.68
5877;BME280;2964;42.144;24.730;2023-01-25T09:16:18;142344.81;;;2.91;84.74
5877;BME280;2964;42.144;24.730;2023-01-25T09:18:51;142366.03;;;3.00;84.76
5877;BME280;2964;42.144;24.730;2023-01-25T09:21:18;142379.75;;;3.05;84.57
5877;BME280;2964;42.144;24.730;2023-01-25T09:23:46;142393.50;;;3.11;84.49
5877;BME280;2964;42.144;24.730;2023-01-25T09:26:14;142392.25;;;3.11;84.65
5877;BME280;2964;42.144;24.730;2023-01-25T09:28:44;142368.56;;;3.01;85.21
5877;BME280;2964;42.144;24.730;2023-01-25T09:31:12;142368.56;;;3.01;85.09
5877;BME280;2964;42.144;24.730;2023-01-25T09:33:40;142351.06;;;2.94;84.85
5877;BME280;2964;42.144;24.730;2023-01-25T09:36:08;142308.63;;;2.76;85.77
5877;BME280;2964;42.144;24.730;2023-01-25T09:38:35;142371.03;;;3.02;85.46
5877;BME280;2964;42.144;24.730;2023-01-25T09:41:18;142369.78;;;3.01;85.26
5877;BME280;2964;42.144;24.730;2023-01-25T09:44:03;142417.19;;;3.21;85.32
5877;BME280;2964;42.144;24.730;2023-01-25T09:46:38;142353.53;;;2.95;85.41
5877;BME280;2964;42.144;24.730;2023-01-25T09:49:18;142415.97;;;3.20;85.30
5877;BME280;2964;42.144;24.730;2023-01-25T09:52:02;142383.50;;;3.07;85.07
5877;BME280;2964;42.144;24.730;2023-01-25T09:54:38;142389.75;;;3.09;85.30
5877;BME280;2964;42.144;24.730;2023-01-25T09:57:10;142378.53;;;3.05;85.28
5877;BME280;2964;42.144;24.730;2023-01-25T09:59:40;142336.06;;;2.87;85.62
5877;BME280;2964;42.144;24.730;2023-01-25T10:02:18;142311.13;;;2.77;85.82
5877;BME280;2964;42.144;24.730;2023-01-25T10:04:53;142391.03;;;3.10;85.41
5877;BME280;2964;42.144;24.730;2023-01-25T10:07:27;142299.88;;;2.73;85.70
5877;BME280;2964;42.144;24.730;2023-01-25T10:10:00;142319.88;;;2.81;86.57
5877;BME280;2964;42.144;24.730;2023-01-25T10:12:34;142366.03;;;3.00;86.52
5877;BME280;2964;42.144;24.730;2023-01-25T10:15:04;142422.22;;;3.23;85.39
5877;BME280;2964;42.144;24.730;2023-01-25T10:17:42;142393.50;;;3.11;85.23
5877;BME280;2964;42.144;24.730;2023-01-25T10:20:19;142398.47;;;3.13;85.65
5877;BME280;2964;42.144;24.730;2023-01-25T10:22:50;142409.75;;;3.18;84.80
5877;BME280;2964;42.144;24.730;2023-01-25T10:25:23;142425.94;;;3.24;84.58
5877;BME280;2964;42.144;24.730;2023-01-25T10:28:14;142401.00;;;3.14;84.54
5877;BME280;2964;42.144;24.730;2023-01-25T10:30:52;142398.47;;;3.13;84.38
5877;BME280;2964;42.144;24.730;2023-01-25T10:33:20;142428.44;;;3.25;84.44
5877;BME280;2964;42.144;24.730;2023-01-25T10:35:52;142381.00;;;3.06;84.51
5877;BME280;2964;42.144;24.730;2023-01-25T10:38:27;142414.72;;;3.20;84.34
5877;BME280;2964;42.144;24.730;2023-01-25T10:40:58;142407.22;;;3.17;83.87
5877;BME280;2964;42.144;24.730;2023-01-25T10:43:27;142388.50;;;3.09;84.44
5877;BME280;2964;42.144;24.730;2023-01-25T10:45:54;142459.66;;;3.38;83.88
5877;BME280;2964;42.144;24.730;2023-01-25T10:48:23;142404.75;;;3.16;83.84
5877;BME280;2964;42.144;24.730;2023-01-25T10:50:55;142429.69;;;3.26;83.88
5877;BME280;2964;42.144;24.730;2023-01-25T10:53:25;142401.00;;;3.14;83.85
5877;BME280;2964;42.144;24.730;2023-01-25T10:56:01;142435.97;;;3.28;84.03
5877;BME280;2964;42.144;24.730;2023-01-25T10:58:34;142475.91;;;3.45;83.64
5877;BME280;2964;42.144;24.730;2023-01-25T11:01:01;142455.91;;;3.37;83.77
5877;BME280;2964;42.144;24.730;2023-01-25T11:03:37;142439.66;;;3.30;84.50
5877;BME280;2964;42.144;24.730;2023-01-25T11:06:06;142463.41;;;3.40;84.08
5877;BME280;2964;42.144;24.730;2023-01-25T11:08:35;142435.97;;;3.28;84.06
5877;BME280;2964;42.144;24.730;2023-01-25T11:11:24;142507.09;;;3.58;83.03
5877;BME280;2964;42.144;24.730;2023-01-25T11:13:51;142520.88;;;3.63;82.66
5877;BME280;2964;42.144;24.730;2023-01-25T11:16:29;142415.97;;;3.20;82.90
5877;BME280;2964;42.144;24.730;2023-01-25T11:18:57;142479.63;;;3.46;83.08
5877;BME280;2964;42.144;24.730;2023-01-25T11:21:27;142405.97;;;3.16;84.45
5877;BME280;2964;42.144;24.730;2023-01-25T11:24:15;142483.38;;;3.48;84.10
5877;BME280;2964;42.144;24.730;2023-01-25T11:26:43;142498.38;;;3.54;84.19
5877;BME280;2964;42.144;24.730;2023-01-25T11:29:12;142513.38;;;3.60;83.94
5877;BME280;2964;42.144;24.730;2023-01-25T11:31:41;142494.63;;;3.53;84.12
5877;BME280;2964;42.144;24.730;2023-01-25T11:34:11;142429.69;;;3.26;84.94
5877;BME280;2964;42.144;24.730;2023-01-25T11:36:49;142490.88;;;3.51;84.80
5877;BME280;2964;42.144;24.730;2023-01-25T11:39:34;142520.88;;;3.63;83.52
5877;BME280;2964;42.144;24.730;2023-01-25T11:42:14;142513.38;;;3.60;84.17
5877;BME280;2964;42.144;24.730;2023-01-25T11:45:05;142492.13;;;3.52;84.49
5877;BME280;2964;42.144;24.730;2023-01-25T11:47:45;142517.13;;;3.62;84.76
5877;BME280;2964;42.144;24.730;2023-01-25T11:50:18;142482.16;;;3.47;84.15
5877;BME280;2964;42.144;24.730;2023-01-25T11:53:01;142465.88;;;3.41;84.56
5877;BME280;2964;42.144;24.730;2023-01-25T11:55:35;142498.38;;;3.54;83.34
5877;BME280;2964;42.144;24.730;2023-01-25T11:58:18;142483.38;;;3.48;83.67
5877;BME280;2964;42.144;24.730;2023-01-25T12:00:57;142504.63;;;3.57;83.24
5877;BME280;2964;42.144;24.730;2023-01-25T12:06:38;142568.28;;;3.83;81.93
5877;BME280;2964;42.144;24.730;2023-01-25T12:09:27;142560.78;;;3.80;82.52
5877;BME280;2964;42.144;24.730;2023-01-25T12:12:12;142583.28;;;3.89;82.15
5877;BME280;2964;42.144;24.730;2023-01-25T12:14:50;142528.31;;;3.66;82.36
5877;BME280;2964;42.144;24.730;2023-01-25T12:17:29;142510.84;;;3.59;83.57
5877;BME280;2964;42.144;24.730;2023-01-25T12:20:10;142503.38;;;3.56;83.79
5877;BME280;2964;42.144;24.730;2023-01-25T12:23:03;142550.81;;;3.76;82.97
5877;BME280;2964;42.144;24.730;2023-01-25T12:25:41;142488.38;;;3.50;83.30
5877;BME280;2964;42.144;24.730;2023-01-25T12:28:14;142558.31;;;3.79;82.86
5877;BME280;2964;42.144;24.730;2023-01-25T12:30:50;142478.38;;;3.46;83.95
5877;BME280;2964;42.144;24.730;2023-01-25T12:33:23;142475.91;;;3.45;84.56
5877;BME280;2964;42.144;24.730;2023-01-25T12:35:56;142448.41;;;3.34;85.03
5877;BME280;2964;42.144;24.730;2023-01-25T12:38:28;142565.81;;;3.82;83.19
5877;BME280;2964;42.144;24.730;2023-01-25T12:41:03;142558.31;;;3.79;83.49
5877;BME280;2964;42.144;24.730;2023-01-25T12:43:35;142530.84;;;3.67;83.17
5877;BME280;2964;42.144;24.730;2023-01-25T12:46:13;142559.56;;;3.79;82.96
5877;BME280;2964;42.144;24.730;2023-01-25T12:48:43;142534.59;;;3.69;83.36
5877;BME280;2964;42.144;24.730;2023-01-25T12:51:12;142545.81;;;3.74;82.87
5877;BME280;2964;42.144;24.730;2023-01-25T12:53:43;142505.84;;;3.57;83.17
5877;BME280;2964;42.144;24.730;2023-01-25T12:56:24;142518.34;;;3.62;83.15
5877;BME280;2964;42.144;24.730;2023-01-25T12:58:57;142333.59;;;2.86;84.75
5877;BME280;2964;42.144;24.730;2023-01-25T13:01:31;142349.78;;;2.93;85.56
5877;BME280;2964;42.144;24.730;2023-01-25T13:04:10;142507.09;;;3.58;84.36
5877;BME280;2964;42.144;24.730;2023-01-25T13:06:44;142503.38;;;3.56;83.94
5877;BME280;2964;42.144;24.730;2023-01-25T13:09:19;142438.44;;;3.29;84.12
5877;BME280;2964;42.144;24.730;2023-01-25T13:11:50;142529.56;;;3.67;83.66
5877;BME280;2964;42.144;24.730;2023-01-25T13:14:30;142532.09;;;3.68;82.70
5877;BME280;2964;42.144;24.730;2023-01-25T13:17:23;142515.84;;;3.61;83.07
5877;BME280;2964;42.144;24.730;2023-01-25T13:19:54;142422.22;;;3.23;83.39
5877;BME280;2964;42.144;24.730;2023-01-25T13:22:52;142438.44;;;3.29;84.36
5877;BME280;2964;42.144;24.730;2023-01-25T13:25:23;142468.41;;;3.42;84.63
5877;BME280;2964;42.144;24.730;2023-01-25T13:27:52;142334.84;;;2.87;84.14